1848 NOT_NAMED (1848011S09079)


IBTrACS version v04r00. Visit IBTrACS website for data access.
Please direct all questions to the IBTrACS Q and A forum

Storm track - Intensity - Wind Radii - Intensity Data - Source Data - All data

Summary Information

Storm ID 1848011S09079
Start Jan 11 06Z
End Jan 17 06Z
ATCF IDs
Track status Best track data.
Spur track This storm is a spur track associated with the main storm: 1848011S09080

Storm track plot

Map of storm track

Intensity plots

No Intensity information for this storm


Radial wind information

No radial wind information for this storm


Position and Intensity Table

BASIN ISO_TIME_________ NATURE LAT LON
degrees north degrees east
SI 1848-01-11 06:00:00 NR -9.00 79.00
SI 09:00:00 NR -9.41 77.73
SI 12:00:00 NR -9.83 76.47
SI 15:00:00 NR -10.29 75.23
SI 18:00:00 NR -10.80 74.00
SI 21:00:00 NR -11.37 72.81
SI 1848-01-12 00:00:00 NR -11.96 71.72
SI 03:00:00 NR -12.49 70.79
SI 06:00:00 NR -12.90 70.10
SI 09:00:00 NR -13.11 69.73
SI 12:00:00 NR -13.21 69.60
SI 15:00:00 NR -13.25 69.59
SI 18:00:00 NR -13.30 69.60
SI 21:00:00 NR -13.44 69.45
SI 1848-01-13 00:00:00 NR -13.59 69.30
SI 03:00:00 NR -13.74 69.15
SI 06:00:00 NR -13.90 69.00
SI 09:00:00 NR -14.05 68.87
SI 12:00:00 NR -14.19 68.74
SI 15:00:00 NR -14.34 68.62
SI 18:00:00 NR -14.50 68.50
SI 21:00:00 NR -14.67 68.37
SI 1848-01-14 00:00:00 NR -14.84 68.24
SI 03:00:00 NR -15.02 68.11
SI 06:00:00 NR -15.20 68.00
SI 09:00:00 NR -15.38 67.91
SI 12:00:00 NR -15.56 67.83
SI 15:00:00 NR -15.73 67.76
SI 18:00:00 NR -15.90 67.70
SI 21:00:00 NR -16.05 67.63
SI 1848-01-15 00:00:00 NR -16.19 67.58
SI 03:00:00 NR -16.34 67.53
SI 06:00:00 NR -16.50 67.50
SI 09:00:00 NR -16.69 67.48
SI 12:00:00 NR -16.89 67.48
SI 15:00:00 NR -17.10 67.48
SI 18:00:00 NR -17.30 67.50
SI 21:00:00 NR -17.25 67.31
SI 1848-01-16 00:00:00 NR -17.23 67.16
SI 03:00:00 NR -17.42 67.21
SI 06:00:00 NR -18.00 67.60
SI 09:00:00 NR -19.19 68.47
SI 12:00:00 NR -20.76 69.72
SI 15:00:00 NR -22.53 71.27
SI 18:00:00 NR -24.30 73.00
SI 21:00:00 NR -25.94 74.84
SI 1848-01-17 00:00:00 NR -27.45 76.75
SI 03:00:00 NR -28.86 78.74
SI 06:00:00 NR -30.20 80.80

Source Information

Agency Information
USA
TOKYO
CMA
HKO
NEWDELHI
REUNION
BOM
NADI
WELLINGTON
DS824
TD9636 cons_worldwide_trop_cyclone_18710101-19891231-005:Line=1
TD9635
NEUMANN
MLC

All available IBTrACS Data

SEASON BASIN SUBBASIN ISO_TIME_________ NATURE LAT LON DIST2LAND LANDFALL IFLAG USA SSHS TD9636 LAT TD9636 LON TD9636 STAGE STORM SPEED STORM DIR
Year degrees north degrees east km km 1 degrees north degrees east kts degrees
1848 SI MM 1848-01-11 06:00:00 NR -9.00 79.00 1679 1679 __________O___ -1 -9.00 79.00 7 26 252
1848 SI MM 09:00:00 NR -9.41 77.73 1744 1744 __________P___ -1 -9.41 77.73 7 26 252
1848 SI MM 12:00:00 NR -9.83 76.47 1817 1817 __________P___ -1 -9.83 76.47 7 26 250
1848 SI MM 15:00:00 NR -10.29 75.23 1911 1911 __________P___ -1 -10.29 75.23 7 26 248
1848 SI MM 18:00:00 NR -10.80 74.00 2007 1900 __________O___ -1 -10.80 74.00 7 26 245
1848 SI MM 21:00:00 NR -11.37 72.81 1885 1763 __________P___ -1 -11.37 72.81 7 25 243
1848 SI MM 1848-01-12 00:00:00 NR -11.96 71.72 1748 1635 __________P___ -1 -11.96 71.72 7 23 241
1848 SI MM 03:00:00 NR -12.49 70.79 1635 1547 __________P___ -1 -12.49 70.79 7 18 239
1848 SI MM 06:00:00 NR -12.90 70.10 1547 1498 __________O___ -1 -12.90 70.10 7 12 239
1848 SI MM 09:00:00 NR -13.11 69.73 1498 1483 __________P___ -1 -13.11 69.73 7 6 237
1848 SI MM 12:00:00 NR -13.21 69.60 1483 1477 __________P___ -1 -13.21 69.60 7 2 224
1848 SI MM 15:00:00 NR -13.25 69.59 1477 1477 __________P___ -1 -13.25 69.59 7 1 0
1848 SI MM 18:00:00 NR -13.30 69.60 1477 1462 __________O___ -1 -13.30 69.60 7 2 217
1848 SI MM 21:00:00 NR -13.44 69.45 1462 1432 __________P___ -1 -13.44 69.45 7 4 226
1848 SI MM 1848-01-13 00:00:00 NR -13.59 69.30 1432 1417 __________P___ -1 -13.59 69.30 7 4 224
1848 SI MM 03:00:00 NR -13.74 69.15 1407 1386 __________P___ -1 -13.74 69.15 7 4 223
1848 SI MM 06:00:00 NR -13.90 69.00 1386 1371 __________O___ -1 -13.90 69.00 7 4 222
1848 SI MM 09:00:00 NR -14.05 68.87 1371 1341 __________P___ -1 -14.05 68.87 7 4 221
1848 SI MM 12:00:00 NR -14.19 68.74 1341 1326 __________P___ -1 -14.19 68.74 7 4 219
1848 SI MM 15:00:00 NR -14.34 68.62 1326 1306 __________P___ -1 -14.34 68.62 7 4 217
1848 SI MM 18:00:00 NR -14.50 68.50 1306 1285 __________O___ -1 -14.50 68.50 7 4 217
1848 SI MM 21:00:00 NR -14.67 68.37 1285 1261 __________P___ -1 -14.67 68.37 7 4 217
1848 SI MM 1848-01-14 00:00:00 NR -14.84 68.24 1261 1241 __________P___ -1 -14.84 68.24 7 4 215
1848 SI MM 03:00:00 NR -15.02 68.11 1241 1221 __________P___ -1 -15.02 68.11 7 4 213
1848 SI MM 06:00:00 NR -15.20 68.00 1221 1201 __________O___ -1 -15.20 68.00 7 4 209
1848 SI MM 09:00:00 NR -15.38 67.91 1201 1186 __________P___ -1 -15.38 67.91 7 4 205
1848 SI MM 12:00:00 NR -15.56 67.83 1181 1175 __________P___ -1 -15.56 67.83 7 4 202
1848 SI MM 15:00:00 NR -15.73 67.76 1175 1156 __________P___ -1 -15.73 67.76 7 4 200
1848 SI MM 18:00:00 NR -15.90 67.70 1156 1141 __________O___ -1 -15.90 67.70 7 3 200
1848 SI MM 21:00:00 NR -16.05 67.63 1141 1131 __________P___ -1 -16.05 67.63 7 3 202
1848 SI MM 1848-01-15 00:00:00 NR -16.19 67.58 1131 1117 __________P___ -1 -16.19 67.58 7 3 199
1848 SI MM 03:00:00 NR -16.34 67.53 1117 1107 __________P___ -1 -16.34 67.53 7 3 194
1848 SI MM 06:00:00 NR -16.50 67.50 1107 1099 __________O___ -1 -16.50 67.50 7 4 186
1848 SI MM 09:00:00 NR -16.69 67.48 1099 1090 __________P___ -1 -16.69 67.48 7 4 0
1848 SI MM 12:00:00 NR -16.89 67.48 1090 1082 __________P___ -1 -16.89 67.48 7 4 0
1848 SI MM 15:00:00 NR -17.10 67.48 1082 1074 __________P___ -1 -17.10 67.48 7 4 0
1848 SI MM 18:00:00 NR -17.30 67.50 1074 1054 __________O___ -1 -17.30 67.50 7 2 227
1848 SI MM 21:00:00 NR -17.25 67.31 1054 1048 __________P___ -1 -17.25 67.31 7 3 282
1848 SI MM 1848-01-16 00:00:00 NR -17.23 67.16 1048 1034 __________P___ -1 -17.23 67.16 7 2 209
1848 SI MM 03:00:00 NR -17.42 67.21 1040 1037 __________P___ -1 -17.42 67.21 7 9 152
1848 SI MM 06:00:00 NR -18.00 67.60 1060 1060 __________O___ -1 -18.00 67.60 7 21 146
1848 SI MM 09:00:00 NR -19.19 68.47 1126 1124 __________P___ -1 -19.19 68.47 7 34 144
1848 SI MM 12:00:00 NR -20.76 69.72 1239 1239 __________P___ -1 -20.76 69.72 7 43 142
1848 SI MM 15:00:00 NR -22.53 71.27 1418 1418 __________P___ -1 -22.53 71.27 7 47 139
1848 SI MM 18:00:00 NR -24.30 73.00 1624 1624 __________O___ -1 -24.30 73.00 7 47 136
1848 SI MM 21:00:00 NR -25.94 74.84 1845 1845 __________P___ -1 -25.94 74.84 7 46 133
1848 SI MM 1848-01-17 00:00:00 NR -27.45 76.75 2084 2084 __________P___ -1 -27.45 76.75 7 45 130
1848 SI MM 03:00:00 NR -28.86 78.74 2313 2279 __________P___ -1 -28.86 78.74 7 45 128
1848 SI MM 06:00:00 NR -30.20 80.80 2274 __________O___ -1 -30.20 80.80 7 45 127